createdAt,value
2023-01-24T00:00:00.506Z,1043.21
2023-01-24T00:00:31.999Z,1043.21
2023-01-24T00:01:03.955Z,1043.21
2023-01-24T00:01:36.033Z,1043.14
2023-01-24T00:01:58.727Z,1043.21
2023-01-24T00:02:21.290Z,1043.21
2023-01-24T00:02:56.152Z,1043.21
2023-01-24T00:03:28.286Z,1043.31
2023-01-24T00:04:01.442Z,1043.31
2023-01-24T00:04:31.992Z,1043.41
2023-01-24T00:05:04.317Z,1043.41
2023-01-24T00:05:36.023Z,1043.31
2023-01-24T00:05:59.011Z,1043.21
2023-01-24T00:06:21.411Z,1043.21
2023-01-24T00:06:56.053Z,1043.21
2023-01-24T00:07:30.401Z,1043.31
2023-01-24T00:08:00.169Z,1043.31
2023-01-24T00:08:32.015Z,1043.31
2023-01-24T00:09:03.952Z,1043.31
2023-01-24T00:09:36.146Z,1043.31
2023-01-24T00:09:59.180Z,1043.21
2023-01-24T00:10:21.551Z,1043.21
2023-01-24T00:10:55.963Z,1043.21
2023-01-24T00:11:33.563Z,1043.21
2023-01-24T00:12:00.045Z,1043.21
2023-01-24T00:12:31.905Z,1043.14
2023-01-24T00:13:03.910Z,1043.14
2023-01-24T00:13:36.152Z,1043.41
2023-01-24T00:13:59.046Z,1043.31
2023-01-24T00:14:21.308Z,1043.31
2023-01-24T00:14:55.975Z,1043.31
2023-01-24T00:15:28.050Z,1043.31
2023-01-24T00:15:59.906Z,1043.31
2023-01-24T00:16:31.931Z,1043.21
2023-01-24T00:17:03.932Z,1043.21
2023-01-24T00:17:36.014Z,1043.21
2023-01-24T00:17:58.831Z,1043.21
2023-01-24T00:18:21.138Z,1043.21
2023-01-24T00:18:55.871Z,1043.21
2023-01-24T00:19:28.052Z,1043.31
2023-01-24T00:19:59.966Z,1043.31
2023-01-24T00:20:32.033Z,1043.04
2023-01-24T00:21:04.109Z,1043.04
2023-01-24T00:21:35.996Z,1043.14
2023-01-24T00:21:58.612Z,1043.14
2023-01-24T00:22:20.996Z,1043.14
2023-01-24T00:22:56.157Z,1043.14
2023-01-24T00:23:28.335Z,1043.21
2023-01-24T00:24:00.037Z,1043.21
2023-01-24T00:24:31.991Z,1043.14
2023-01-24T00:25:04.004Z,1043.14
2023-01-24T00:25:36.138Z,1043.31
2023-01-24T00:25:58.808Z,1043.21
2023-01-24T00:26:21.129Z,1043.21
2023-01-24T00:26:56.263Z,1043.21
2023-01-24T00:27:28.043Z,1043.21
2023-01-24T00:28:00.061Z,1043.21
2023-01-24T00:28:32.045Z,1043.14
2023-01-24T00:29:04.107Z,1043.14
2023-01-24T00:29:36.210Z,1043.21
2023-01-24T00:29:59.638Z,1043.14
2023-01-24T00:30:22.169Z,1043.14
2023-01-24T00:30:56.029Z,1043.14
2023-01-24T00:31:28.282Z,1043.21
2023-01-24T00:32:00.027Z,1043.21
2023-01-24T00:32:31.854Z,1043.21
2023-01-24T00:33:05.508Z,1043.21
2023-01-24T00:33:36.099Z,1043.14
2023-01-24T00:33:58.893Z,1043.21
2023-01-24T00:34:21.086Z,1043.21
2023-01-24T00:34:55.908Z,1043.21
2023-01-24T00:35:28.115Z,1043.21
2023-01-24T00:36:00.063Z,1043.21
2023-01-24T00:36:32.236Z,1043.04
2023-01-24T00:37:04.036Z,1043.04
2023-01-24T00:37:35.912Z,1043.14
2023-01-24T00:37:58.720Z,1043.14
2023-01-24T00:38:21.016Z,1043.14
2023-01-24T00:38:56.191Z,1043.14
2023-01-24T00:39:28.230Z,1043.04
2023-01-24T00:40:00.325Z,1043.04
2023-01-24T00:40:31.894Z,1043.14
2023-01-24T00:41:04.042Z,1043.14
2023-01-24T00:41:35.939Z,1043.21
2023-01-24T00:41:59.347Z,1043.04
2023-01-24T00:42:21.621Z,1043.04
2023-01-24T00:42:56.116Z,1043.04
2023-01-24T00:43:28.087Z,1043.14
2023-01-24T00:44:00.158Z,1043.14
2023-01-24T00:44:31.900Z,1043.04
2023-01-24T00:45:03.965Z,1043.04
2023-01-24T00:45:35.916Z,1043.21
2023-01-24T00:45:59.059Z,1043.14
2023-01-24T00:46:21.272Z,1043.14
2023-01-24T00:46:55.953Z,1043.14
2023-01-24T00:47:28.139Z,1043.14
2023-01-24T00:48:00.125Z,1043.14
2023-01-24T00:48:32.255Z,1043.41
2023-01-24T00:49:04.194Z,1043.41
2023-01-24T00:49:35.949Z,1043.21
2023-01-24T00:49:58.822Z,1043.31
2023-01-24T00:50:21.197Z,1043.31
2023-01-24T00:50:56.088Z,1043.31
2023-01-24T00:51:27.991Z,1043.41
2023-01-24T00:52:00.030Z,1043.41
2023-01-24T00:52:32.017Z,1043.21
2023-01-24T00:53:04.130Z,1043.21
2023-01-24T00:53:36.237Z,1043.31
2023-01-24T00:53:59.598Z,1043.21
2023-01-24T00:54:21.862Z,1043.21
2023-01-24T00:54:56.213Z,1043.21
2023-01-24T00:55:27.960Z,1043.21
2023-01-24T00:55:59.933Z,1043.21
2023-01-24T00:56:31.981Z,1043.14
2023-01-24T00:57:04.302Z,1043.14
2023-01-24T00:57:35.865Z,1043.21
2023-01-24T00:57:59.204Z,1043.31
2023-01-24T00:58:21.213Z,1043.31
2023-01-24T00:58:56.116Z,1043.31
2023-01-24T00:59:27.908Z,1043.31
2023-01-24T01:00:00.042Z,1043.31
2023-01-24T01:00:48.525Z,1043.21
2023-01-24T01:01:10.744Z,1043.31
2023-01-24T01:01:33.698Z,1043.31
2023-01-24T01:02:04.121Z,1043.41
2023-01-24T01:02:40.951Z,1043.41
2023-01-24T01:03:03.301Z,1043.04
2023-01-24T01:03:28.578Z,1043.04
2023-01-24T01:04:00.195Z,1043.04
2023-01-24T01:04:32.265Z,1043.41
2023-01-24T01:05:04.248Z,1043.41
2023-01-24T01:05:36.756Z,1043.41
2023-01-24T01:05:59.551Z,1043.14
2023-01-24T01:06:22.078Z,1043.14
2023-01-24T01:06:56.904Z,1043.14
2023-01-24T01:07:28.005Z,1043.04
2023-01-24T01:08:01.334Z,1043.04
2023-01-24T01:08:32.109Z,1043.21
2023-01-24T01:09:06.240Z,1043.31
2023-01-24T01:09:36.127Z,1043.31
2023-01-24T01:09:58.921Z,1043.21
2023-01-24T01:10:21.484Z,1043.21
2023-01-24T01:10:56.704Z,1043.21
2023-01-24T01:11:28.218Z,1043.14
2023-01-24T01:12:00.132Z,1043.14
2023-01-24T01:12:32.886Z,1043.04
2023-01-24T01:13:04.563Z,1043.04
2023-01-24T01:13:52.631Z,1043.21
2023-01-24T01:14:24.723Z,1043.14
2023-01-24T01:14:56.061Z,1043.14
2023-01-24T01:15:28.021Z,1043.21
2023-01-24T01:16:00.250Z,1043.21
2023-01-24T01:16:31.884Z,1043.31
2023-01-24T01:17:04.161Z,1043.31
2023-01-24T01:17:36.017Z,1043.14
2023-01-24T01:17:58.801Z,1043.14
2023-01-24T01:18:22.183Z,1043.14
2023-01-24T01:18:55.948Z,1043.14
2023-01-24T01:19:28.748Z,1043.21
2023-01-24T01:20:00.038Z,1043.21
2023-01-24T01:20:33.749Z,1042.94
2023-01-24T01:21:04.027Z,1042.94
2023-01-24T01:21:36.267Z,1043.21
2023-01-24T01:21:58.916Z,1043.21
2023-01-24T01:22:22.448Z,1043.21
2023-01-24T01:22:57.009Z,1043.21
2023-01-24T01:23:28.394Z,1043.21
2023-01-24T01:24:00.370Z,1043.21
2023-01-24T01:24:32.226Z,1043.21
2023-01-24T01:25:04.531Z,1043.21
2023-01-24T01:25:35.892Z,1043.21
2023-01-24T01:25:58.576Z,1043.14
2023-01-24T01:26:22.808Z,1043.14
2023-01-24T01:26:56.143Z,1043.14
2023-01-24T01:27:28.390Z,1043.04
2023-01-24T01:28:00.807Z,1043.04
2023-01-24T01:28:33.181Z,1043.21
2023-01-24T01:29:04.046Z,1043.21
2023-01-24T01:29:36.929Z,1043.14
2023-01-24T01:29:59.559Z,1043.21
2023-01-24T01:30:23.397Z,1043.21
2023-01-24T01:30:56.765Z,1043.21
2023-01-24T01:31:28.624Z,1043.04
2023-01-24T01:32:00.640Z,1043.04
2023-01-24T01:32:31.993Z,1043.31
2023-01-24T01:33:04.358Z,1043.31
2023-01-24T01:33:36.092Z,1043.21
2023-01-24T01:33:58.790Z,1043.14
2023-01-24T01:34:23.704Z,1043.14
2023-01-24T01:34:56.030Z,1043.14
2023-01-24T01:35:27.872Z,1043.21
2023-01-24T01:36:00.037Z,1043.21
2023-01-24T01:36:32.585Z,1043.14
2023-01-24T01:37:03.852Z,1043.14
2023-01-24T01:37:36.764Z,1043.31
2023-01-24T01:37:59.648Z,1043.31
2023-01-24T01:38:24.343Z,1043.31
2023-01-24T01:38:56.491Z,1043.31
2023-01-24T01:39:28.419Z,1043.51
2023-01-24T01:40:00.642Z,1043.51
2023-01-24T01:40:32.839Z,1043.41
2023-01-24T01:41:05.201Z,1043.41
2023-01-24T01:41:36.007Z,1043.21
2023-01-24T01:41:58.846Z,1043.21
2023-01-24T01:42:21.804Z,1043.21
2023-01-24T01:42:56.506Z,1043.21
2023-01-24T01:43:28.648Z,1043.41
2023-01-24T01:44:00.212Z,1043.41
2023-01-24T01:44:32.357Z,1043.31
2023-01-24T01:45:04.063Z,1043.31
2023-01-24T01:45:35.966Z,1043.21
2023-01-24T01:45:58.703Z,1043.41
2023-01-24T01:46:21.364Z,1043.41
2023-01-24T01:46:56.159Z,1043.41
2023-01-24T01:47:28.490Z,1043.21
2023-01-24T01:48:02.120Z,1043.21
2023-01-24T01:48:32.399Z,1043.21
2023-01-24T01:49:04.393Z,1043.21
2023-01-24T01:49:36.161Z,1042.94
2023-01-24T01:49:58.700Z,1043.21
2023-01-24T01:50:21.120Z,1043.21
2023-01-24T01:50:56.037Z,1043.21
2023-01-24T01:51:28.076Z,1043.21
2023-01-24T01:51:59.851Z,1043.21
2023-01-24T01:52:32.858Z,1043.04
2023-01-24T01:53:03.973Z,1043.04
2023-01-24T01:53:37.747Z,1043.31
2023-01-24T01:54:00.259Z,1043.14
2023-01-24T01:54:22.362Z,1043.14
2023-01-24T01:54:55.959Z,1043.14
2023-01-24T01:55:28.097Z,1043.51
2023-01-24T01:55:59.931Z,1043.51
2023-01-24T01:56:32.005Z,1043.31
2023-01-24T01:57:03.879Z,1043.31
2023-01-24T01:57:36.048Z,1043.41
2023-01-24T01:57:59.116Z,1043.21
2023-01-24T01:58:21.548Z,1043.21
2023-01-24T01:58:56.154Z,1043.21
2023-01-24T01:59:27.960Z,1043.21
2023-01-24T02:00:00.366Z,1043.21
2023-01-24T02:00:31.951Z,1043.14
2023-01-24T02:01:04.193Z,1043.14
2023-01-24T02:01:35.890Z,1043.14
2023-01-24T02:01:58.882Z,1043.21
2023-01-24T02:02:21.513Z,1043.21
2023-01-24T02:02:56.260Z,1043.21
2023-01-24T02:03:28.166Z,1043.31
2023-01-24T02:04:32.141Z,1043.31
2023-01-24T02:05:04.005Z,1043.31
2023-01-24T02:05:35.935Z,1043.21
2023-01-24T02:05:58.646Z,1043.14
2023-01-24T02:06:21.033Z,1043.14
2023-01-24T02:06:56.048Z,1043.14
2023-01-24T02:07:27.975Z,1043.21
2023-01-24T02:07:59.828Z,1043.21
2023-01-24T02:08:32.246Z,1043.21
2023-01-24T02:09:03.875Z,1043.21
2023-01-24T02:09:35.985Z,1043.31
2023-01-24T02:09:59.585Z,1043.14
2023-01-24T02:10:21.887Z,1043.14
2023-01-24T02:10:56.037Z,1043.14
2023-01-24T02:11:28.342Z,1043.14
2023-01-24T02:11:59.887Z,1043.14
2023-01-24T02:12:31.961Z,1043.14
2023-01-24T02:13:04.013Z,1043.14
2023-01-24T02:13:36.498Z,1043.14
2023-01-24T02:13:59.133Z,1043.21
2023-01-24T02:14:21.502Z,1043.21
2023-01-24T02:14:56.161Z,1043.21
2023-01-24T02:15:28.481Z,1043.14
2023-01-24T02:15:59.981Z,1043.14
2023-01-24T02:16:31.983Z,1043.21
2023-01-24T02:17:04.079Z,1043.21
2023-01-24T02:17:35.910Z,1043.04
2023-01-24T02:17:58.742Z,1043.04
2023-01-24T02:18:21.035Z,1043.04
2023-01-24T02:18:56.087Z,1043.04
2023-01-24T02:19:29.990Z,1043.21
2023-01-24T02:20:00.156Z,1043.21
2023-01-24T02:20:32.249Z,1043.04
2023-01-24T02:21:03.990Z,1043.04
2023-01-24T02:21:35.988Z,1043.14
2023-01-24T02:21:58.859Z,1043.14
2023-01-24T02:22:21.213Z,1043.14
2023-01-24T02:22:56.192Z,1043.14
2023-01-24T02:23:29.849Z,1043.04
2023-01-24T02:24:00.054Z,1043.04
2023-01-24T02:24:31.925Z,1043.14
2023-01-24T02:25:03.952Z,1043.14
2023-01-24T02:25:35.973Z,1043.14
2023-01-24T02:25:58.776Z,1043.14
2023-01-24T02:26:21.235Z,1043.14
2023-01-24T02:26:55.966Z,1043.14
2023-01-24T02:27:30.078Z,1043.14
2023-01-24T02:28:00.034Z,1043.14
2023-01-24T02:28:31.985Z,1043.21
2023-01-24T02:29:03.952Z,1043.21
2023-01-24T02:29:36.069Z,1043.14
2023-01-24T02:29:58.981Z,1043.21
2023-01-24T02:30:21.396Z,1043.21
2023-01-24T02:30:56.063Z,1043.21
2023-01-24T02:31:28.603Z,1043.04
2023-01-24T02:32:00.178Z,1043.04
2023-01-24T02:32:31.949Z,1043.04
2023-01-24T02:33:04.285Z,1043.04
2023-01-24T02:33:35.977Z,1043.04
2023-01-24T02:33:58.943Z,1043.04
2023-01-24T02:34:21.374Z,1043.04
2023-01-24T02:34:55.871Z,1043.04
2023-01-24T02:35:27.873Z,1043.04
2023-01-24T02:36:01.719Z,1043.04
2023-01-24T02:36:32.417Z,1042.94
2023-01-24T02:37:04.499Z,1042.94
2023-01-24T02:37:37.188Z,1042.94
2023-01-24T02:37:59.867Z,1042.94
2023-01-24T02:38:22.527Z,1042.94
2023-01-24T02:38:56.930Z,1042.94
2023-01-24T02:39:28.339Z,1043.04
2023-01-24T02:40:00.630Z,1043.04
2023-01-24T02:40:32.369Z,1042.63
2023-01-24T02:41:04.088Z,1042.63
2023-01-24T02:41:36.061Z,1043.04
2023-01-24T02:41:58.715Z,1043.04
2023-01-24T02:42:21.181Z,1043.04
2023-01-24T02:42:58.025Z,1043.04
2023-01-24T02:43:28.571Z,1042.94
2023-01-24T02:44:00.353Z,1042.94
2023-01-24T02:44:33.290Z,1043.04
2023-01-24T02:45:04.873Z,1043.04
2023-01-24T02:45:37.439Z,1042.94
2023-01-24T02:46:00.373Z,1042.84
2023-01-24T02:46:23.212Z,1042.84
2023-01-24T02:46:56.418Z,1042.84
2023-01-24T02:47:28.056Z,1043.14
2023-01-24T02:48:02.599Z,1043.14
2023-01-24T02:48:32.555Z,1043.14
2023-01-24T02:49:05.118Z,1043.14
2023-01-24T02:49:36.337Z,1043.04
2023-01-24T02:49:58.896Z,1043.04
2023-01-24T02:50:22.870Z,1043.04
2023-01-24T02:50:56.733Z,1043.04
2023-01-24T02:51:28.777Z,1042.94
2023-01-24T02:52:00.312Z,1042.94
2023-01-24T02:52:33.089Z,1042.84
2023-01-24T02:53:04.000Z,1042.84
2023-01-24T02:53:36.851Z,1043.04
2023-01-24T02:53:59.665Z,1043.04
2023-01-24T02:54:22.371Z,1043.04
2023-01-24T02:54:56.442Z,1043.04
2023-01-24T02:55:28.855Z,1042.94
2023-01-24T02:56:00.279Z,1042.94
2023-01-24T02:56:33.467Z,1042.94
2023-01-24T02:57:04.217Z,1042.94
2023-01-24T02:57:36.095Z,1042.94
2023-01-24T02:57:58.822Z,1043.04
2023-01-24T02:58:21.304Z,1043.04
2023-01-24T02:58:57.467Z,1043.04
2023-01-24T02:59:28.078Z,1042.94
2023-01-24T03:00:00.626Z,1042.94
2023-01-24T03:00:37.087Z,1042.94
2023-01-24T03:01:05.693Z,1042.94
2023-01-24T03:01:36.712Z,1042.94
2023-01-24T03:01:59.434Z,1042.84
2023-01-24T03:02:22.001Z,1042.84
2023-01-24T03:03:04.328Z,1042.94
2023-01-24T03:03:26.662Z,1042.94
2023-01-24T03:04:00.738Z,1042.94
2023-01-24T03:04:34.366Z,1043.14
2023-01-24T03:05:04.257Z,1043.14
2023-01-24T03:05:36.184Z,1042.84
2023-01-24T03:05:59.092Z,1043.04
2023-01-24T03:06:21.659Z,1043.04
2023-01-24T03:06:56.020Z,1043.04
2023-01-24T03:07:27.882Z,1042.94
2023-01-24T03:08:00.952Z,1042.94
2023-01-24T03:08:31.989Z,1042.84
2023-01-24T03:09:03.972Z,1042.84
2023-01-24T03:09:36.349Z,1042.94
2023-01-24T03:10:00.107Z,1043.14
2023-01-24T03:10:22.402Z,1043.14
2023-01-24T03:10:56.210Z,1043.14
2023-01-24T03:11:28.187Z,1042.84
2023-01-24T03:12:00.414Z,1042.84
2023-01-24T03:12:32.152Z,1043.04
2023-01-24T03:13:03.983Z,1043.04
2023-01-24T03:13:36.083Z,1042.84
2023-01-24T03:13:58.986Z,1042.84
2023-01-24T03:14:21.135Z,1042.84
2023-01-24T03:14:56.027Z,1042.84
2023-01-24T03:15:28.201Z,1042.84
2023-01-24T03:15:59.977Z,1042.84
2023-01-24T03:16:32.087Z,1043.04
2023-01-24T03:17:04.039Z,1043.04
2023-01-24T03:17:35.993Z,1042.74
2023-01-24T03:17:58.895Z,1042.94
2023-01-24T03:18:21.715Z,1042.94
2023-01-24T03:18:56.124Z,1042.94
2023-01-24T03:19:27.982Z,1042.74
2023-01-24T03:20:00.184Z,1042.74
2023-01-24T03:20:31.854Z,1042.84
2023-01-24T03:21:04.325Z,1042.84
2023-01-24T03:21:36.541Z,1042.84
2023-01-24T03:21:58.694Z,1042.74
2023-01-24T03:22:21.117Z,1042.74
2023-01-24T03:22:56.248Z,1042.74
2023-01-24T03:23:28.560Z,1042.63
2023-01-24T03:24:00.047Z,1042.63
2023-01-24T03:24:32.104Z,1043.04
2023-01-24T03:25:03.828Z,1043.04
2023-01-24T03:25:37.098Z,1042.74
2023-01-24T03:25:58.997Z,1042.74
2023-01-24T03:26:21.415Z,1042.74
2023-01-24T03:26:56.050Z,1042.74
2023-01-24T03:27:28.030Z,1042.84
2023-01-24T03:27:59.894Z,1042.84
2023-01-24T03:28:32.274Z,1042.63
2023-01-24T03:29:03.828Z,1042.63
2023-01-24T03:29:37.452Z,1042.84
2023-01-24T03:29:59.021Z,1042.63
2023-01-24T03:30:21.471Z,1042.63
2023-01-24T03:30:55.970Z,1042.63
2023-01-24T03:31:28.211Z,1042.63
2023-01-24T03:32:00.132Z,1042.63
2023-01-24T03:32:31.995Z,1042.94
2023-01-24T03:33:03.978Z,1042.94
2023-01-24T03:33:37.925Z,1042.84
2023-01-24T03:33:58.679Z,1042.74
2023-01-24T03:34:21.121Z,1042.74
2023-01-24T03:34:55.992Z,1042.74
2023-01-24T03:35:28.177Z,1042.74
2023-01-24T03:36:01.570Z,1042.74
2023-01-24T03:36:34.342Z,1042.74
2023-01-24T03:37:04.040Z,1042.74
2023-01-24T03:37:36.058Z,1042.63
2023-01-24T03:37:59.742Z,1042.53
2023-01-24T03:38:21.860Z,1042.53
2023-01-24T03:38:55.974Z,1042.53
2023-01-24T03:39:28.229Z,1042.74
2023-01-24T03:40:00.291Z,1042.74
2023-01-24T03:40:32.122Z,1042.63
2023-01-24T03:41:04.146Z,1042.63
2023-01-24T03:41:35.969Z,1042.84
2023-01-24T03:41:59.251Z,1042.74
2023-01-24T03:42:21.300Z,1042.74
2023-01-24T03:42:56.093Z,1042.74
2023-01-24T03:43:27.961Z,1042.63
2023-01-24T03:43:59.961Z,1042.63
2023-01-24T03:44:32.010Z,1042.74
2023-01-24T03:45:04.269Z,1042.74
2023-01-24T03:45:36.011Z,1042.74
2023-01-24T03:45:59.085Z,1042.84
2023-01-24T03:46:21.379Z,1042.84
2023-01-24T03:46:56.165Z,1042.84
2023-01-24T03:47:27.990Z,1042.74
2023-01-24T03:48:00.159Z,1042.74
2023-01-24T03:48:32.007Z,1042.84
2023-01-24T03:49:04.032Z,1042.84
2023-01-24T03:49:35.945Z,1042.53
2023-01-24T03:49:59.003Z,1042.84
2023-01-24T03:50:21.293Z,1042.84
2023-01-24T03:50:55.883Z,1042.84
2023-01-24T03:51:28.466Z,1042.74
2023-01-24T03:51:59.998Z,1042.74
2023-01-24T03:52:31.886Z,1042.63
2023-01-24T03:53:04.168Z,1042.63
2023-01-24T03:53:36.265Z,1042.74
2023-01-24T03:53:58.990Z,1042.63
2023-01-24T03:54:21.354Z,1042.63
2023-01-24T03:54:55.910Z,1042.63
2023-01-24T03:55:28.078Z,1042.63
2023-01-24T03:55:59.879Z,1042.63
2023-01-24T03:56:32.135Z,1042.43
2023-01-24T03:57:04.056Z,1042.43
2023-01-24T03:57:36.256Z,1042.63
2023-01-24T03:57:59.685Z,1042.63
2023-01-24T03:58:22.233Z,1042.63
2023-01-24T03:58:55.914Z,1042.63
2023-01-24T03:59:28.036Z,1042.84
2023-01-24T04:00:00.041Z,1042.84
2023-01-24T04:00:32.116Z,1042.63
2023-01-24T04:01:04.218Z,1042.63
2023-01-24T04:01:36.036Z,1042.43
2023-01-24T04:01:59.929Z,1042.94
2023-01-24T04:02:22.996Z,1042.94
2023-01-24T04:02:55.868Z,1042.94
2023-01-24T04:03:28.221Z,1042.84
2023-01-24T04:04:00.628Z,1042.84
2023-01-24T04:04:31.871Z,1042.84
2023-01-24T04:05:03.834Z,1042.84
2023-01-24T04:05:37.411Z,1042.74
2023-01-24T04:06:00.210Z,1042.74
2023-01-24T04:06:22.546Z,1042.74
2023-01-24T04:06:56.080Z,1042.74
2023-01-24T04:07:28.109Z,1042.74
2023-01-24T04:07:59.969Z,1042.74
2023-01-24T04:08:31.866Z,1042.74
2023-01-24T04:09:04.164Z,1042.74
2023-01-24T04:09:36.039Z,1042.74
2023-01-24T04:09:58.944Z,1042.84
2023-01-24T04:10:21.231Z,1042.84
2023-01-24T04:10:56.128Z,1042.84
2023-01-24T04:11:28.315Z,1042.63
2023-01-24T04:11:59.943Z,1042.63
2023-01-24T04:12:31.972Z,1042.84
2023-01-24T04:13:03.908Z,1042.84
2023-01-24T04:13:36.005Z,1042.84
2023-01-24T04:13:59.089Z,1042.84
2023-01-24T04:14:21.508Z,1042.84
2023-01-24T04:14:55.942Z,1042.84
2023-01-24T04:15:28.029Z,1042.53
2023-01-24T04:15:59.955Z,1042.53
2023-01-24T04:16:32.030Z,1042.74
2023-01-24T04:17:04.090Z,1042.74
2023-01-24T04:17:35.894Z,1042.74
2023-01-24T04:17:58.790Z,1042.84
2023-01-24T04:18:21.075Z,1042.84
2023-01-24T04:18:55.910Z,1042.84
2023-01-24T04:19:29.497Z,1042.74
2023-01-24T04:19:59.930Z,1042.74
2023-01-24T04:20:31.999Z,1042.74
2023-01-24T04:21:04.648Z,1042.74
2023-01-24T04:21:35.846Z,1042.74
2023-01-24T04:21:58.633Z,1042.84
2023-01-24T04:22:21.019Z,1042.84
2023-01-24T04:22:55.993Z,1042.84
2023-01-24T04:23:27.868Z,1042.84
2023-01-24T04:23:59.959Z,1042.84
2023-01-24T04:24:31.958Z,1042.84
2023-01-24T04:25:03.997Z,1042.84
2023-01-24T04:25:35.944Z,1042.84
2023-01-24T04:25:58.784Z,1043.14
2023-01-24T04:26:21.145Z,1043.14
2023-01-24T04:26:56.051Z,1043.14
2023-01-24T04:27:28.065Z,1042.94
2023-01-24T04:27:59.991Z,1042.94
2023-01-24T04:28:32.017Z,1042.94
2023-01-24T04:29:03.875Z,1042.94
2023-01-24T04:29:35.881Z,1042.84
2023-01-24T04:29:58.757Z,1042.84
2023-01-24T04:30:21.258Z,1042.84
2023-01-24T04:30:56.063Z,1042.84
2023-01-24T04:31:28.286Z,1042.94
2023-01-24T04:31:59.904Z,1042.94
2023-01-24T04:32:31.959Z,1043.14
2023-01-24T04:33:03.959Z,1043.14
2023-01-24T04:33:35.964Z,1043.04
2023-01-24T04:33:58.884Z,1042.84
2023-01-24T04:34:21.313Z,1042.84
2023-01-24T04:34:55.963Z,1042.84
2023-01-24T04:35:28.236Z,1043.04
2023-01-24T04:36:00.336Z,1043.04
2023-01-24T04:36:32.389Z,1042.94
2023-01-24T04:37:03.847Z,1042.94
2023-01-24T04:37:36.115Z,1042.84
2023-01-24T04:38:02.373Z,1042.94
2023-01-24T04:38:39.996Z,1042.94
2023-01-24T04:39:03.333Z,1043.04
2023-01-24T04:39:25.481Z,1043.04
2023-01-24T04:40:00.227Z,1043.04
2023-01-24T04:40:32.113Z,1043.04
2023-01-24T04:41:04.007Z,1043.04
2023-01-24T04:41:35.946Z,1043.14
2023-01-24T04:41:58.651Z,1043.04
2023-01-24T04:42:20.966Z,1043.04
2023-01-24T04:42:55.969Z,1043.04
2023-01-24T04:43:27.868Z,1042.94
2023-01-24T04:44:00.156Z,1042.94
2023-01-24T04:44:32.074Z,1042.94
2023-01-24T04:45:03.966Z,1042.94
2023-01-24T04:45:35.861Z,1043.04
2023-01-24T04:45:58.655Z,1043.04
2023-01-24T04:46:21.036Z,1043.04
2023-01-24T04:46:56.215Z,1043.04
2023-01-24T04:47:28.104Z,1043.04
2023-01-24T04:48:00.036Z,1043.04
2023-01-24T04:48:32.029Z,1043.04
2023-01-24T04:49:04.159Z,1043.04
2023-01-24T04:49:36.103Z,1043.04
2023-01-24T04:49:59.011Z,1043.14
2023-01-24T04:50:23.835Z,1043.14
2023-01-24T04:50:55.963Z,1043.14
2023-01-24T04:51:30.554Z,1042.84
2023-01-24T04:51:59.984Z,1042.84
2023-01-24T04:52:31.956Z,1043.04
2023-01-24T04:53:04.240Z,1043.04
2023-01-24T04:53:35.959Z,1043.14
2023-01-24T04:53:58.566Z,1043.14
2023-01-24T04:54:21.100Z,1043.14
2023-01-24T04:54:56.132Z,1043.14
2023-01-24T04:55:28.208Z,1043.04
2023-01-24T04:55:59.959Z,1043.04
2023-01-24T04:56:31.882Z,1043.21
2023-01-24T04:57:03.957Z,1043.21
2023-01-24T04:57:35.859Z,1043.21
2023-01-24T04:57:58.762Z,1043.14
2023-01-24T04:58:21.051Z,1043.14
2023-01-24T04:58:56.118Z,1043.14
2023-01-24T04:59:27.929Z,1042.84
2023-01-24T05:00:00.116Z,1042.84
2023-01-24T05:00:49.039Z,1043.04
2023-01-24T05:01:11.420Z,1043.21
2023-01-24T05:01:33.476Z,1043.21
2023-01-24T05:02:04.265Z,1043.04
2023-01-24T05:02:40.090Z,1043.04
2023-01-24T05:03:02.989Z,1043.21
2023-01-24T05:03:26.001Z,1043.21
2023-01-24T05:04:00.681Z,1043.21
2023-01-24T05:04:32.568Z,1043.21
2023-01-24T05:05:04.169Z,1043.21
2023-01-24T05:05:36.213Z,1043.21
2023-01-24T05:05:58.875Z,1043.04
2023-01-24T05:06:21.218Z,1043.04
2023-01-24T05:06:56.885Z,1043.04
2023-01-24T05:07:27.997Z,1042.94
2023-01-24T05:07:59.967Z,1042.94
2023-01-24T05:08:31.942Z,1043.14
2023-01-24T05:09:04.051Z,1043.14
2023-01-24T05:09:39.467Z,1043.04
2023-01-24T05:09:58.767Z,1043.14
2023-01-24T05:10:21.771Z,1043.14
2023-01-24T05:10:56.093Z,1043.14
2023-01-24T05:11:28.256Z,1042.94
2023-01-24T05:11:59.978Z,1042.94
2023-01-24T05:12:31.948Z,1043.14
2023-01-24T05:13:04.112Z,1043.14
2023-01-24T05:13:36.106Z,1043.04
2023-01-24T05:13:59.007Z,1043.04
2023-01-24T05:14:21.133Z,1043.04
2023-01-24T05:14:56.676Z,1043.04
2023-01-24T05:15:28.437Z,1043.04
2023-01-24T05:15:59.952Z,1043.04
2023-01-24T05:16:32.222Z,1043.04
2023-01-24T05:17:04.906Z,1043.04
2023-01-24T05:17:36.581Z,1042.94
2023-01-24T05:17:58.986Z,1042.84
2023-01-24T05:18:21.369Z,1042.84
2023-01-24T05:18:55.933Z,1042.84
2023-01-24T05:19:30.137Z,1042.94
2023-01-24T05:20:00.965Z,1042.94
2023-01-24T05:20:33.016Z,1042.84
2023-01-24T05:21:04.976Z,1042.84
2023-01-24T05:21:36.273Z,1043.04
2023-01-24T05:21:58.951Z,1043.21
2023-01-24T05:22:21.435Z,1043.21
2023-01-24T05:23:02.726Z,1043.04
2023-01-24T05:23:26.467Z,1043.04
2023-01-24T05:24:00.280Z,1043.04
2023-01-24T05:24:31.870Z,1043.04
2023-01-24T05:25:03.884Z,1043.04
2023-01-24T05:25:35.959Z,1043.14
2023-01-24T05:25:58.657Z,1043.04
2023-01-24T05:26:21.004Z,1043.04
2023-01-24T05:26:55.990Z,1043.04
2023-01-24T05:27:28.072Z,1043.14
2023-01-24T05:27:59.988Z,1043.14
2023-01-24T05:28:31.938Z,1043.04
2023-01-24T05:29:03.981Z,1043.04
2023-01-24T05:29:36.071Z,1043.04
2023-01-24T05:29:59.521Z,1043.14
2023-01-24T05:30:21.853Z,1043.14
2023-01-24T05:30:56.049Z,1043.14
2023-01-24T05:31:28.046Z,1043.14
2023-01-24T05:31:59.958Z,1043.14
2023-01-24T05:32:32.421Z,1042.94
2023-01-24T05:32:58.032Z,1042.94
2023-01-24T05:33:32.484Z,1043.14
2023-01-24T05:34:04.185Z,1043.04
2023-01-24T05:34:40.386Z,1043.04
2023-01-24T05:35:08.374Z,1043.04
2023-01-24T05:35:25.182Z,1043.04
2023-01-24T05:36:02.455Z,1043.21
2023-01-24T05:36:32.211Z,1043.21
2023-01-24T05:37:04.207Z,1043.21
2023-01-24T05:37:36.392Z,1043.04
2023-01-24T05:37:59.422Z,1043.21
2023-01-24T05:38:21.760Z,1043.21
2023-01-24T05:38:55.975Z,1043.21
2023-01-24T05:39:28.896Z,1043.14
2023-01-24T05:40:00.749Z,1043.14
2023-01-24T05:40:32.135Z,1043.21
2023-01-24T05:41:04.216Z,1043.21
2023-01-24T05:41:36.632Z,1043.04
2023-01-24T05:41:59.058Z,1043.21
2023-01-24T05:42:21.584Z,1043.21
2023-01-24T05:42:56.928Z,1043.21
2023-01-24T05:43:29.483Z,1043.04
2023-01-24T05:44:00.012Z,1043.04
2023-01-24T05:44:32.239Z,1043.41
2023-01-24T05:45:04.397Z,1043.41
2023-01-24T05:45:35.872Z,1042.94
2023-01-24T05:45:58.645Z,1043.14
2023-01-24T05:46:23.165Z,1043.14
2023-01-24T05:46:56.277Z,1043.14
2023-01-24T05:47:28.663Z,1043.21
2023-01-24T05:48:01.505Z,1043.21
2023-01-24T05:48:32.158Z,1043.14
2023-01-24T05:49:04.825Z,1043.14
2023-01-24T05:49:36.873Z,1043.04
2023-01-24T05:49:59.524Z,1043.31
2023-01-24T05:50:22.188Z,1043.31
2023-01-24T05:50:57.656Z,1043.31
2023-01-24T05:51:27.942Z,1043.14
2023-01-24T05:52:00.385Z,1043.14
2023-01-24T05:52:32.294Z,1043.41
2023-01-24T05:53:03.948Z,1043.41
2023-01-24T05:53:35.990Z,1043.31
2023-01-24T05:53:58.666Z,1043.21
2023-01-24T05:54:21.153Z,1043.21
2023-01-24T05:54:56.276Z,1043.21
2023-01-24T05:55:28.594Z,1043.31
2023-01-24T05:56:02.006Z,1043.31
2023-01-24T05:56:32.407Z,1043.21
2023-01-24T05:57:04.322Z,1043.21
2023-01-24T05:57:38.130Z,1043.31
2023-01-24T05:58:00.718Z,1043.14
2023-01-24T05:58:23.305Z,1043.14
2023-01-24T05:58:57.015Z,1043.14
2023-01-24T05:59:28.336Z,1043.21
2023-01-24T06:00:00.121Z,1043.21
2023-01-24T06:00:32.042Z,1043.31
2023-01-24T06:01:04.140Z,1043.31
2023-01-24T06:01:36.470Z,1043.31
2023-01-24T06:01:59.480Z,1043.21
2023-01-24T06:02:22.238Z,1043.21
2023-01-24T06:02:56.585Z,1043.21
2023-01-24T06:03:32.810Z,1043.21